Time;durP1;ratioP1;P1;durP2;ratioP2;P2;SDS_P1;SDS_P2;PMS_P1;PMS_P2;Temp;Humidity;BMP_temperature;BMP_pressure;BME280_temperature;BME280_humidity;BME280_pressure;Samples;Min_cycle;Max_cycle;Signal;HPM_P1;HPM_P2
2021/10/26 00:00:55;;;;;;;;;;;5.40;99.90;;;4.14;100.00;96102.81;10620993;27;1976;-72
2021/10/26 00:05:59;;;;;;;;;;;5.40;99.90;;;4.17;100.00;96099.69;10617477;27;2018;-73
2021/10/26 00:11:03;;;;;;;;;;;5.40;99.90;;;4.26;100.00;96097.50;10620801;27;1290;-73
2021/10/26 00:16:06;;;;;;;;;;;5.40;99.90;;;4.22;100.00;96101.66;10580033;28;1230;-73
2021/10/26 00:21:09;;;;;;;;;;;5.50;99.90;;;4.32;100.00;96100.06;10569488;28;1979;-74
2021/10/26 00:26:12;;;;;;;;;;;5.50;99.90;;;4.26;100.00;96106.31;10548011;28;1428;-73
2021/10/26 00:31:15;;;;;;;;;;;5.50;99.90;;;4.21;100.00;96108.84;10574015;28;1285;-76
2021/10/26 00:36:18;;;;;;;;;;;5.50;99.90;;;4.22;100.00;96109.66;10587365;28;1471;-72
2021/10/26 00:41:21;;;;;;;;;;;5.40;99.90;;;4.20;100.00;96112.56;10611754;28;1878;-72
2021/10/26 00:46:24;;;;;;;;;;;5.40;99.90;;;4.22;100.00;96110.47;10598703;28;1533;-73
2021/10/26 00:51:28;;;;;;;;;;;5.40;99.90;;;4.19;100.00;96112.75;10579660;28;1719;-74
2021/10/26 00:56:31;;;;;;;;;;;5.60;99.90;;;4.13;100.00;96103.00;10572390;28;1973;-74
2021/10/26 01:01:35;;;;;;;;;;;5.40;99.90;;;4.13;100.00;96100.34;10565838;28;2077;-72
2021/10/26 01:06:38;;;;;;;;;;;5.40;99.90;;;4.18;100.00;96100.50;10566208;28;1976;-73
2021/10/26 01:11:42;;;;;;;;;;;5.40;99.90;;;4.15;100.00;96099.09;10568524;28;1881;-73
2021/10/26 01:16:45;;;;;;;;;;;5.30;99.90;;;4.14;100.00;96091.34;10566366;28;1985;-74
2021/10/26 01:21:57;;;;;;;;;;;5.30;99.90;;;4.10;100.00;96104.28;10556023;28;1986;-73
2021/10/26 01:27:14;;;;;;;;;;;5.30;99.90;;;4.04;100.00;96097.19;10553067;28;1882;-73
2021/10/26 01:32:36;;;;;;;;;;;5.30;99.90;;;4.06;100.00;96098.59;10575445;28;1938;-73
2021/10/26 01:37:40;;;;;;;;;;;5.30;99.90;;;4.05;100.00;96098.81;10571188;28;1957;-73
2021/10/26 01:42:43;;;;;;;;;;;5.40;99.90;;;4.02;100.00;96093.97;10568455;27;1981;-73
2021/10/26 01:47:46;;;;;;;;;;;5.20;99.90;;;4.03;100.00;96098.22;10560326;28;1309;-73
2021/10/26 01:52:49;;;;;;;;;;;5.20;99.90;;;4.00;100.00;96093.34;10588339;27;1685;-74
2021/10/26 01:57:52;;;;;;;;;;;5.20;99.90;;;4.01;100.00;96089.69;10585332;28;1154;-73
2021/10/26 02:02:55;;;;;;;;;;;5.20;99.90;;;3.99;100.00;96099.72;10572003;28;1979;-75
2021/10/26 02:07:58;;;;;;;;;;;5.20;99.90;;;3.94;100.00;96099.56;10574149;28;1559;-74
2021/10/26 02:13:00;;;;;;;;;;;5.10;99.90;;;3.92;100.00;96104.31;10575982;28;1276;-74
2021/10/26 02:18:03;;;;;;;;;;;5.10;99.90;;;3.89;100.00;96104.75;10554116;28;1492;-73
2021/10/26 02:23:06;;;;;;;;;;;5.20;99.90;;;3.86;100.00;96107.84;10576375;28;1914;-73
2021/10/26 02:28:09;;;;;;;;;;;5.10;99.90;;;3.77;100.00;96113.47;10552362;28;1462;-73
2021/10/26 02:33:12;;;;;;;;;;;5.00;99.90;;;3.73;100.00;96122.91;10565648;28;1470;-73
2021/10/26 02:38:15;;;;;;;;;;;5.00;99.90;;;3.67;100.00;96123.81;10543165;28;1886;-73
2021/10/26 02:43:18;;;;;;;;;;;4.90;99.90;;;3.58;100.00;96113.69;10577205;28;1378;-75
2021/10/26 02:48:21;;;;;;;;;;;4.90;99.90;;;3.51;100.00;96119.09;10556773;27;1654;-73
2021/10/26 02:53:24;;;;;;;;;;;4.80;99.90;;;3.45;100.00;96125.28;10555996;28;1491;-72
2021/10/26 02:58:27;;;;;;;;;;;4.70;99.90;;;3.43;100.00;96119.34;10574617;28;2008;-73
2021/10/26 03:03:30;;;;;;;;;;;5.00;99.90;;;3.34;100.00;96121.50;10572801;28;1401;-76
2021/10/26 03:08:33;;;;;;;;;;;4.70;99.90;;;3.27;100.00;96118.09;10572988;28;1495;-74
2021/10/26 03:13:36;;;;;;;;;;;4.60;99.90;;;3.21;100.00;96125.09;10574207;28;1185;-73
2021/10/26 03:18:39;;;;;;;;;;;4.50;99.90;;;3.18;100.00;96133.50;10569911;28;1993;-74
2021/10/26 03:23:42;;;;;;;;;;;4.50;99.90;;;3.15;100.00;96130.47;10570779;28;1432;-74
2021/10/26 03:28:46;;;;;;;;;;;4.50;99.90;;;3.13;100.00;96127.22;10569045;28;1746;-74
2021/10/26 03:33:49;;;;;;;;;;;4.40;99.90;;;3.14;100.00;96132.31;10568595;28;1957;-74
2021/10/26 03:38:52;;;;;;;;;;;4.40;99.90;;;3.17;100.00;96129.22;10567281;28;1981;-73
2021/10/26 03:43:55;;;;;;;;;;;4.40;99.90;;;3.19;100.00;96142.28;10569310;28;2056;-74
2021/10/26 03:48:58;;;;;;;;;;;4.40;99.90;;;3.18;100.00;96148.59;10566340;27;1940;-73
2021/10/26 03:54:01;;;;;;;;;;;4.40;99.90;;;3.32;100.00;96138.69;10571306;28;1978;-74
2021/10/26 03:59:09;;;;;;;;;;;4.70;99.90;;;3.32;100.00;96142.16;10568074;28;1973;-74
2021/10/26 04:04:12;;;;;;;;;;;4.50;99.90;;;3.30;100.00;96143.41;10552195;28;1898;-74
2021/10/26 04:09:21;;;;;;;;;;;4.50;99.90;;;3.30;100.00;96146.88;10564264;28;1894;-73
2021/10/26 04:14:24;;;;;;;;;;;4.50;99.90;;;3.31;100.00;96153.00;10569622;28;1951;-74
2021/10/26 04:19:28;;;;;;;;;;;4.50;99.90;;;3.29;100.00;96157.72;10551646;27;1909;-73
2021/10/26 04:24:51;;;;;;;;;;;4.50;99.90;;;3.29;100.00;96179.78;10568670;28;1885;-73
2021/10/26 04:29:54;;;;;;;;;;;4.60;99.90;;;3.29;100.00;96163.84;10574186;28;1972;-74
2021/10/26 04:34:57;;;;;;;;;;;4.50;99.90;;;3.29;100.00;96168.34;10567839;28;2226;-73
2021/10/26 04:40:02;;;;;;;;;;;4.40;99.90;;;3.42;100.00;96179.66;10556401;28;1906;-75
2021/10/26 04:45:05;;;;;;;;;;;4.50;99.90;;;3.68;100.00;96183.91;10571758;28;1920;-73
2021/10/26 04:50:07;;;;;;;;;;;4.70;99.90;;;3.87;100.00;96181.28;10545718;28;2002;-73
2021/10/26 04:55:10;;;;;;;;;;;4.90;99.90;;;4.03;100.00;96188.69;10570481;28;1921;-73
2021/10/26 05:00:13;;;;;;;;;;;5.00;99.90;;;4.00;100.00;96187.25;10582748;27;1971;-73
2021/10/26 05:05:16;;;;;;;;;;;5.20;99.90;;;3.95;100.00;96186.31;10554907;28;1333;-73
2021/10/26 05:10:19;;;;;;;;;;;5.10;99.90;;;3.86;100.00;96187.63;10577967;28;1424;-74
2021/10/26 05:15:22;;;;;;;;;;;5.10;99.90;;;3.76;100.00;96191.63;10574007;28;2059;-73
2021/10/26 05:20:27;;;;;;;;;;;5.00;99.90;;;3.75;100.00;96200.66;10575945;28;2032;-74
2021/10/26 05:25:30;;;;;;;;;;;5.00;99.90;;;3.71;100.00;96199.44;10578575;28;2383;-74
2021/10/26 05:30:33;;;;;;;;;;;5.00;99.90;;;3.70;100.00;96203.16;10575321;28;1863;-73
2021/10/26 05:35:36;;;;;;;;;;;4.90;99.90;;;3.71;100.00;96210.09;10575826;28;1928;-74
2021/10/26 05:40:39;;;;;;;;;;;5.00;99.90;;;3.73;100.00;96208.00;10573141;28;2108;-73
2021/10/26 05:45:46;;;;;;;;;;;5.00;99.90;;;3.77;100.00;96217.19;10557865;28;2169;-73
2021/10/26 05:50:49;;;;;;;;;;;5.00;99.90;;;3.90;100.00;96218.91;10575397;28;1913;-74
2021/10/26 05:55:52;;;;;;;;;;;5.00;99.90;;;4.13;100.00;96228.88;10576657;28;1882;-75
2021/10/26 06:00:55;;;;;;;;;;;5.10;99.90;;;4.34;100.00;96231.09;10577504;28;2064;-73
2021/10/26 06:05:58;;;;;;;;;;;5.20;99.90;;;4.41;100.00;96224.88;10573615;27;1944;-73
2021/10/26 06:11:04;;;;;;;;;;;5.40;99.90;;;4.78;100.00;96242.44;10575736;27;1873;-74
2021/10/26 06:16:07;;;;;;;;;;;5.60;99.90;;;5.23;100.00;96234.00;10575109;28;1945;-74
2021/10/26 06:21:10;;;;;;;;;;;5.90;99.90;;;5.38;100.00;96241.53;10574863;28;1918;-74
2021/10/26 06:26:13;;;;;;;;;;;6.10;99.90;;;5.56;100.00;96248.66;10573481;27;1921;-74
2021/10/26 06:31:16;;;;;;;;;;;6.40;99.90;;;5.86;100.00;96253.91;10576957;27;1965;-74
2021/10/26 06:36:19;;;;;;;;;;;6.50;99.90;;;6.15;100.00;96258.31;10568742;28;1874;-73
2021/10/26 06:41:25;;;;;;;;;;;6.80;99.90;;;6.35;100.00;96273.16;10575974;27;1986;-74
2021/10/26 06:46:28;;;;;;;;;;;7.00;99.90;;;6.54;100.00;96273.81;10571231;28;2052;-73
2021/10/26 06:51:31;;;;;;;;;;;7.20;99.90;;;6.70;100.00;96281.09;10576387;28;1988;-73
2021/10/26 06:56:34;;;;;;;;;;;7.40;99.90;;;6.81;100.00;96287.44;10573489;28;2142;-75
2021/10/26 07:01:37;;;;;;;;;;;7.50;99.90;;;6.87;100.00;96287.34;10575097;28;1972;-74
2021/10/26 07:06:40;;;;;;;;;;;7.60;99.90;;;6.77;100.00;96287.13;10570876;28;2064;-74
2021/10/26 07:11:43;;;;;;;;;;;7.70;99.90;;;6.68;100.00;96297.38;10589775;28;1965;-74
2021/10/26 07:16:46;;;;;;;;;;;7.70;99.90;;;6.62;100.00;96300.19;10585042;27;1950;-73
2021/10/26 07:21:49;;;;;;;;;;;7.60;99.90;;;6.55;100.00;96302.16;10587283;27;1992;-73
2021/10/26 07:26:52;;;;;;;;;;;7.50;99.90;;;6.61;100.00;96309.22;10589829;28;1886;-73
2021/10/26 07:31:59;;;;;;;;;;;7.50;99.90;;;6.82;100.00;96316.63;10575414;28;1942;-73
2021/10/26 07:37:02;;;;;;;;;;;7.60;99.90;;;7.10;100.00;96320.38;10547570;28;1938;-74
2021/10/26 07:42:05;;;;;;;;;;;7.80;99.90;;;7.31;100.00;96322.38;10571277;28;1972;-74
2021/10/26 07:47:08;;;;;;;;;;;8.00;99.90;;;7.77;97.51;96328.56;10566061;28;1886;-74
2021/10/26 07:52:11;;;;;;;;;;;8.20;99.90;;;8.25;94.67;96333.31;10577719;27;2168;-73
2021/10/26 07:57:27;;;;;;;;;;;8.60;99.90;;;9.30;88.72;96331.53;10569808;28;1934;-75
2021/10/26 08:02:30;;;;;;;;;;;9.30;99.90;;;10.14;83.72;96327.47;10571703;28;1985;-73
2021/10/26 08:07:33;;;;;;;;;;;10.10;99.90;;;10.48;81.60;96325.31;10567083;28;1914;-73
2021/10/26 08:12:36;;;;;;;;;;;10.80;99.90;;;10.74;78.73;96329.75;10567959;27;1847;-73
2021/10/26 08:17:39;;;;;;;;;;;11.20;99.90;;;10.94;78.14;96333.63;10570201;28;1967;-73
2021/10/26 08:22:43;;;;;;;;;;;11.30;99.90;;;10.61;80.67;96335.59;10566938;28;1918;-74
2021/10/26 08:27:46;;;;;;;;;;;11.40;99.90;;;10.21;84.41;96328.88;10570132;28;1883;-75
2021/10/26 08:32:54;;;;;;;;;;;11.20;99.90;;;10.21;89.36;96330.75;10567926;28;1874;-74
2021/10/26 08:37:58;;;;;;;;;;;11.00;99.90;;;10.15;92.42;96331.78;10567477;28;1934;-74
2021/10/26 08:43:03;;;;;;;;;;;11.00;99.90;;;10.02;93.12;96336.50;10569000;28;1927;-74
2021/10/26 08:48:06;;;;;;;;;;;11.00;99.90;;;9.85;93.43;96345.75;10566087;28;1922;-74
2021/10/26 08:53:09;;;;;;;;;;;10.90;99.90;;;10.04;93.29;96352.34;10565909;28;1859;-74
2021/10/26 08:58:13;;;;;;;;;;;10.80;99.90;;;10.38;93.06;96344.06;10566064;28;1767;-74
2021/10/26 09:03:16;;;;;;;;;;;10.90;99.90;;;10.85;90.67;96345.97;10567369;28;1921;-76
2021/10/26 09:08:19;;;;;;;;;;;11.30;99.90;;;11.40;88.31;96350.78;10569213;28;2068;-73
2021/10/26 09:18:42;;;;;;;;;;;12.20;99.90;;;11.57;84.36;96343.28;10560215;28;1816;-73
2021/10/26 09:23:45;;;;;;;;;;;12.30;99.90;;;11.74;84.34;96340.34;10551836;28;1987;-73
2021/10/26 09:28:55;;;;;;;;;;;12.30;99.90;;;11.61;84.86;96340.88;10568046;28;1965;-75
2021/10/26 09:33:58;;;;;;;;;;;12.50;99.90;;;11.85;83.67;96336.63;10566823;28;1870;-73
2021/10/26 09:39:01;;;;;;;;;;;12.50;99.90;;;11.97;83.76;96346.34;10567652;28;1866;-74
2021/10/26 09:44:04;;;;;;;;;;;12.60;99.90;;;11.85;83.73;96341.22;10577884;28;1906;-74
2021/10/26 09:49:07;;;;;;;;;;;12.60;99.90;;;11.50;87.06;96347.31;10552199;28;1804;-74
2021/10/26 09:54:10;;;;;;;;;;;12.50;99.90;;;11.49;90.19;96346.50;10574088;28;1880;-74
2021/10/26 09:59:13;;;;;;;;;;;12.30;99.90;;;11.64;90.92;96343.00;10573508;28;2569;-72
2021/10/26 10:04:16;;;;;;;;;;;12.30;99.90;;;11.77;89.93;96341.69;10573743;27;2402;-75
2021/10/26 10:09:19;;;;;;;;;;;12.40;99.90;;;11.95;88.03;96348.50;10571736;28;2375;-75
2021/10/26 10:14:22;;;;;;;;;;;12.60;99.90;;;12.14;86.46;96349.59;10575127;27;2371;-73
2021/10/26 10:19:25;;;;;;;;;;;12.80;99.90;;;12.77;84.39;96339.28;10552951;27;2412;-73
2021/10/26 10:24:28;;;;;;;;;;;13.10;99.90;;;12.99;81.73;96326.28;10575048;27;1913;-73
2021/10/26 10:29:31;;;;;;;;;;;13.40;99.90;;;13.12;81.63;96330.28;10555694;28;1947;-73
2021/10/26 10:34:35;;;;;;;;;;;13.70;99.90;;;13.06;80.96;96325.16;10573862;27;2026;-73
2021/10/26 10:39:38;;;;;;;;;;;13.90;99.90;;;13.23;80.04;96331.88;10556399;28;1895;-73
2021/10/26 10:44:40;;;;;;;;;;;14.10;99.90;;;13.66;78.15;96312.47;10574216;28;1984;-73
2021/10/26 10:49:43;;;;;;;;;;;14.20;99.90;;;13.72;77.95;96319.47;10550143;28;1951;-73
2021/10/26 10:54:49;;;;;;;;;;;14.30;99.90;;;13.87;76.85;96313.13;10572245;28;1950;-73
2021/10/26 10:59:52;;;;;;;;;;;14.50;99.90;;;13.42;78.35;96312.34;10578065;28;2002;-74
2021/10/26 11:04:56;;;;;;;;;;;14.30;99.90;;;13.12;80.55;96313.28;10570685;27;1909;-73
2021/10/26 11:09:58;;;;;;;;;;;14.10;99.90;;;12.74;82.36;96315.56;10573982;28;1918;-73
2021/10/26 11:15:02;;;;;;;;;;;13.90;99.90;;;12.49;83.88;96316.41;10574883;28;1851;-73
2021/10/26 11:20:05;;;;;;;;;;;13.60;99.90;;;12.75;82.03;96319.06;10571881;27;1789;-73
2021/10/26 11:25:08;;;;;;;;;;;13.50;99.90;;;13.05;80.90;96327.06;10600145;27;1952;-74
2021/10/26 11:30:11;;;;;;;;;;;13.70;99.90;;;13.63;78.46;96315.75;10612739;27;1667;-72
2021/10/26 11:35:14;;;;;;;;;;;14.10;99.90;;;13.76;77.63;96325.94;10615362;27;1578;-73
2021/10/26 11:40:17;;;;;;;;;;;14.30;99.90;;;13.58;77.98;96321.97;10582840;28;1409;-74
2021/10/26 11:45:39;;;;;;;;;;;14.40;99.90;;;13.67;77.21;96316.78;10570557;28;2048;-74
2021/10/26 11:50:41;;;;;;;;;;;14.50;99.90;;;13.35;78.50;96315.34;10572695;27;1905;-74
2021/10/26 11:55:44;;;;;;;;;;;14.30;99.90;;;13.14;80.02;96311.09;10574424;28;1651;-73
2021/10/26 12:00:47;;;;;;;;;;;14.10;99.90;;;12.77;82.36;96306.09;10594737;27;2172;-74
2021/10/26 12:05:50;;;;;;;;;;;13.90;99.90;;;12.48;83.24;96314.00;10614280;28;1918;-76
2021/10/26 12:10:53;;;;;;;;;;;13.70;99.90;;;12.47;84.65;96313.19;10596256;28;1826;-73
2021/10/26 12:16:07;;;;;;;;;;;13.50;99.90;;;12.80;82.84;96306.38;10589153;28;1835;-74
2021/10/26 12:21:10;;;;;;;;;;;13.50;99.90;;;12.96;81.79;96299.81;10591229;28;1894;-73
2021/10/26 12:26:13;;;;;;;;;;;13.70;99.90;;;13.37;79.40;96299.69;10590968;28;1859;-74
2021/10/26 12:31:15;;;;;;;;;;;13.90;99.90;;;13.87;77.05;96303.16;10600422;28;1780;-73
2021/10/26 12:36:18;;;;;;;;;;;14.40;99.90;;;13.91;73.23;96287.97;10595175;28;1767;-74
2021/10/26 12:41:28;;;;;;;;;;;14.70;99.90;;;13.88;74.92;96296.66;10596383;28;1909;-74
2021/10/26 12:46:31;;;;;;;;;;;14.70;99.90;;;14.01;73.01;96297.91;10573762;28;1870;-73
2021/10/26 12:51:34;;;;;;;;;;;14.80;99.90;;;14.34;72.98;96290.88;10573123;28;1913;-72
2021/10/26 12:56:37;;;;;;;;;;;15.00;99.90;;;14.52;72.14;96283.97;10571770;28;1914;-74
2021/10/26 13:01:40;;;;;;;;;;;15.20;99.90;;;14.49;70.86;96281.81;10572767;28;1899;-75
2021/10/26 13:06:43;;;;;;;;;;;15.20;99.90;;;14.03;72.72;96279.50;10569756;28;1867;-74
2021/10/26 13:11:46;;;;;;;;;;;15.00;99.90;;;13.62;73.89;96279.03;10574171;28;2290;-76
2021/10/26 13:16:49;;;;;;;;;;;14.80;99.90;;;13.08;76.58;96282.50;10582929;27;1863;-74
2021/10/26 13:21:52;;;;;;;;;;;14.50;99.90;;;12.70;79.22;96280.22;10594477;27;2275;-74
2021/10/26 13:26:55;;;;;;;;;;;14.00;99.90;;;12.36;81.17;96276.53;10575061;27;1483;-74
2021/10/26 13:31:58;;;;;;;;;;;13.70;99.90;;;12.29;81.54;96293.00;10578992;27;1874;-73
2021/10/26 13:37:01;;;;;;;;;;;13.40;99.90;;;12.34;81.08;96297.53;10571496;27;3571;-73
2021/10/26 13:42:04;;;;;;;;;;;13.30;99.90;;;12.36;80.85;96284.63;10573550;28;2486;-73
2021/10/26 13:47:07;;;;;;;;;;;13.40;99.90;;;12.40;80.42;96281.09;10570104;28;1918;-74
2021/10/26 13:52:10;;;;;;;;;;;13.30;99.90;;;12.42;80.53;96284.34;10569947;27;2575;-74
2021/10/26 13:57:13;;;;;;;;;;;13.40;99.90;;;12.42;80.15;96286.22;10573478;28;1823;-74
2021/10/26 14:02:16;;;;;;;;;;;13.40;99.90;;;12.30;80.18;96299.19;10575193;27;1958;-74
2021/10/26 14:07:19;;;;;;;;;;;13.30;99.90;;;12.27;79.40;96291.63;10575853;28;2317;-74
2021/10/26 14:12:22;;;;;;;;;;;13.30;99.90;;;12.20;80.05;96297.28;10578118;28;1921;-74
2021/10/26 14:17:25;;;;;;;;;;;13.20;99.90;;;12.16;80.54;96282.75;10574169;28;1855;-75
2021/10/26 14:22:28;;;;;;;;;;;13.20;99.90;;;12.13;81.23;96297.56;10576994;27;1985;-75
2021/10/26 14:27:31;;;;;;;;;;;13.20;99.90;;;12.29;80.80;96289.50;10577124;27;2112;-73
2021/10/26 14:32:34;;;;;;;;;;;13.20;99.90;;;12.40;79.93;96283.78;10577875;28;2023;-73
2021/10/26 14:37:47;;;;;;;;;;;13.30;99.90;;;12.80;78.29;96289.38;10572846;28;1708;-75
2021/10/26 14:53:45;;;;;;;;;;;13.90;99.90;;;12.94;76.14;96290.41;10573164;28;1898;-74
2021/10/26 14:58:48;;;;;;;;;;;13.90;99.90;;;12.78;76.64;96305.81;10575261;28;2290;-73
2021/10/26 15:03:50;;;;;;;;;;;13.90;99.90;;;12.49;77.96;96311.03;10570498;27;2002;-72
2021/10/26 15:08:57;;;;;;;;;;;13.70;99.90;;;12.48;78.79;96319.38;10572969;27;2286;-73
2021/10/26 15:14:03;;;;;;;;;;;13.50;99.90;;;12.04;84.91;96319.94;10572657;28;1974;-74
2021/10/26 15:19:06;;;;;;;;;;;13.30;99.90;;;11.85;87.42;96322.38;10565828;28;1878;-73
2021/10/26 15:24:21;;;;;;;;;;;13.00;99.90;;;11.84;87.96;96316.16;10573746;27;1937;-73
2021/10/26 15:34:44;;;;;;;;;;;12.90;99.90;;;11.62;89.55;96324.44;10569197;28;2083;-74
2021/10/26 15:39:47;;;;;;;;;;;12.70;99.90;;;11.52;90.49;96329.00;10566456;27;3211;-74
2021/10/26 15:44:51;;;;;;;;;;;12.70;99.90;;;11.45;91.22;96333.81;10569668;28;2558;-74
2021/10/26 15:49:54;;;;;;;;;;;12.60;99.90;;;11.36;91.40;96336.22;10569538;28;2339;-74
2021/10/26 15:54:56;;;;;;;;;;;12.50;99.90;;;11.10;93.76;96341.50;10569089;28;2318;-75
2021/10/26 15:59:59;;;;;;;;;;;12.40;99.90;;;11.05;94.73;96343.38;10571313;28;1941;-74
2021/10/26 16:05:02;;;;;;;;;;;12.20;99.90;;;10.99;95.52;96364.06;10550408;28;1960;-73
2021/10/26 16:10:08;;;;;;;;;;;12.10;99.90;;;10.81;96.48;96357.25;10570050;28;1763;-73
2021/10/26 16:15:17;;;;;;;;;;;12.00;99.90;;;10.78;97.07;96357.75;10570737;28;2338;-74
2021/10/26 16:20:20;;;;;;;;;;;11.90;99.90;;;10.74;97.76;96359.34;10571064;27;1862;-75
2021/10/26 16:25:23;;;;;;;;;;;11.90;99.90;;;10.66;98.63;96365.22;10553470;28;1943;-74
2021/10/26 16:30:26;;;;;;;;;;;11.80;99.90;;;10.66;98.56;96370.59;10569868;28;1903;-74
2021/10/26 16:35:29;;;;;;;;;;;11.80;99.90;;;10.53;99.31;96371.84;10549007;28;1937;-74
2021/10/26 16:40:33;;;;;;;;;;;11.80;99.90;;;10.39;100.00;96391.38;10567708;28;4818;-73
2021/10/26 16:45:46;;;;;;;;;;;11.60;99.90;;;10.39;100.00;96394.06;10567570;28;2302;-73
2021/10/26 16:50:49;;;;;;;;;;;11.50;99.90;;;10.22;100.00;96394.97;10573467;27;1988;-73
2021/10/26 16:55:52;;;;;;;;;;;11.40;99.90;;;10.23;100.00;96418.09;10574871;27;1862;-73
2021/10/26 17:00:56;;;;;;;;;;;11.40;99.90;;;10.22;100.00;96411.09;10586901;28;1867;-74
2021/10/26 17:06:00;;;;;;;;;;;11.40;99.90;;;10.22;100.00;96413.78;10578462;28;1986;-74
2021/10/26 17:11:05;;;;;;;;;;;11.30;99.90;;;10.20;100.00;96413.22;10560549;28;2073;-75
2021/10/26 17:16:08;;;;;;;;;;;11.30;99.90;;;10.09;100.00;96419.56;10577235;28;1931;-74
2021/10/26 17:21:11;;;;;;;;;;;11.30;99.90;;;10.14;100.00;96433.03;10574362;27;3236;-74
2021/10/26 17:26:14;;;;;;;;;;;11.20;99.90;;;10.08;100.00;96441.31;10573004;28;2454;-74
2021/10/26 17:31:17;;;;;;;;;;;11.10;99.90;;;10.15;100.00;96450.78;10579512;28;1929;-74
2021/10/26 17:36:19;;;;;;;;;;;11.20;99.90;;;10.12;100.00;96467.44;10572961;27;2295;-73
2021/10/26 17:41:39;;;;;;;;;;;11.10;99.90;;;10.04;100.00;96457.13;10576429;28;1930;-73
2021/10/26 17:46:47;;;;;;;;;;;11.10;99.90;;;10.13;100.00;96462.88;10568418;27;1898;-73
2021/10/26 17:51:52;;;;;;;;;;;11.10;99.90;;;10.08;100.00;96471.66;10572853;27;2302;-73
2021/10/26 17:56:57;;;;;;;;;;;11.20;99.90;;;10.07;100.00;96477.31;10573829;28;2029;-73
2021/10/26 18:02:00;;;;;;;;;;;11.10;99.90;;;10.18;100.00;96485.22;10577382;27;1928;-75
2021/10/26 18:07:03;;;;;;;;;;;11.20;99.90;;;10.16;100.00;96473.91;10571813;28;1921;-75
2021/10/26 18:12:09;;;;;;;;;;;11.20;99.90;;;10.17;100.00;96482.75;10558647;28;1899;-75
2021/10/26 18:17:12;;;;;;;;;;;11.20;99.90;;;10.12;100.00;96483.53;10556352;27;2128;-74
2021/10/26 18:22:15;;;;;;;;;;;11.10;99.90;;;10.08;100.00;96487.78;10575291;28;2091;-75
2021/10/26 18:27:19;;;;;;;;;;;11.10;99.90;;;10.03;100.00;96483.16;10574331;28;1823;-73
2021/10/26 18:32:22;;;;;;;;;;;11.10;99.90;;;9.96;100.00;96479.88;10574539;28;1977;-73
2021/10/26 18:37:24;;;;;;;;;;;11.00;99.90;;;9.95;100.00;96483.63;10573081;28;1893;-75
2021/10/26 18:42:34;;;;;;;;;;;11.00;99.90;;;9.78;100.00;96482.88;10575605;28;2026;-73
2021/10/26 18:47:38;;;;;;;;;;;10.90;99.90;;;9.66;100.00;96484.88;10570946;28;1975;-73
2021/10/26 18:52:42;;;;;;;;;;;10.80;99.90;;;9.51;100.00;96488.19;10573401;28;2493;-74
2021/10/26 18:57:44;;;;;;;;;;;10.70;99.90;;;9.40;100.00;96481.06;10569352;28;1922;-73
2021/10/26 19:02:47;;;;;;;;;;;10.60;99.90;;;9.21;100.00;96476.00;10570571;28;1988;-75
2021/10/26 19:07:50;;;;;;;;;;;10.50;99.90;;;9.11;100.00;96472.38;10567514;28;1879;-75
2021/10/26 19:12:53;;;;;;;;;;;10.30;99.90;;;8.90;100.00;96466.69;10573330;28;1918;-74
2021/10/26 19:17:56;;;;;;;;;;;10.20;99.90;;;8.76;100.00;96465.41;10569083;27;2282;-75
2021/10/26 19:22:59;;;;;;;;;;;10.10;99.90;;;8.64;100.00;96467.38;10584544;28;1968;-72
2021/10/26 19:28:02;;;;;;;;;;;10.00;99.90;;;8.49;100.00;96480.53;10577150;28;1795;-76
2021/10/26 19:33:05;;;;;;;;;;;9.80;99.90;;;8.32;100.00;96477.81;10582527;27;1299;-73
2021/10/26 19:38:08;;;;;;;;;;;9.70;99.90;;;8.25;100.00;96488.66;10570741;28;1333;-75
2021/10/26 19:43:14;;;;;;;;;;;9.50;99.90;;;8.08;100.00;96485.97;10568989;27;2052;-74
2021/10/26 19:48:17;;;;;;;;;;;9.40;99.90;;;7.99;100.00;96492.75;10559318;28;1969;-74
2021/10/26 19:53:20;;;;;;;;;;;9.30;99.90;;;7.91;100.00;96500.38;10570526;27;1876;-75
2021/10/26 19:58:23;;;;;;;;;;;9.20;99.90;;;7.85;100.00;96508.28;10555600;28;2514;-74
2021/10/26 20:03:29;;;;;;;;;;;9.20;99.90;;;7.71;100.00;96506.94;10539337;28;2272;-74
2021/10/26 20:08:32;;;;;;;;;;;9.10;99.90;;;7.65;100.00;96512.44;10556530;28;2195;-74
2021/10/26 20:13:35;;;;;;;;;;;9.00;99.90;;;7.54;100.00;96525.59;10568850;28;1965;-75
2021/10/26 20:18:38;;;;;;;;;;;8.90;99.90;;;7.48;100.00;96523.84;10567435;28;1962;-75
2021/10/26 20:24:02;;;;;;;;;;;8.80;99.90;;;7.39;100.00;96519.13;10546730;27;1992;-74
2021/10/26 20:29:06;;;;;;;;;;;8.70;99.90;;;7.34;100.00;96529.69;10570675;28;1823;-74
2021/10/26 20:34:11;;;;;;;;;;;8.70;99.90;;;7.25;100.00;96526.56;10562421;28;2204;-73
2021/10/26 20:39:14;;;;;;;;;;;8.60;99.90;;;7.20;100.00;96523.78;10549358;28;1965;-74
2021/10/26 20:44:17;;;;;;;;;;;8.50;99.90;;;7.15;100.00;96529.03;10566209;28;2043;-75
2021/10/26 20:49:21;;;;;;;;;;;8.50;99.90;;;7.15;100.00;96529.81;10562229;28;1866;-74
2021/10/26 20:54:30;;;;;;;;;;;8.40;99.90;;;7.10;100.00;96531.56;10561430;28;1908;-74
2021/10/26 20:59:33;;;;;;;;;;;8.40;99.90;;;7.03;100.00;96545.88;10565004;28;1969;-73
2021/10/26 21:04:36;;;;;;;;;;;8.40;99.90;;;6.98;100.00;96545.75;10561235;28;2033;-73
2021/10/26 21:09:39;;;;;;;;;;;8.30;99.90;;;6.91;100.00;96552.25;10575013;28;1986;-73
2021/10/26 21:14:42;;;;;;;;;;;8.20;99.90;;;6.87;100.00;96551.91;10567438;28;1956;-73
2021/10/26 21:19:45;;;;;;;;;;;8.10;99.90;;;6.82;100.00;96551.78;10561611;28;3494;-74
2021/10/26 21:24:47;;;;;;;;;;;8.10;99.90;;;6.79;100.00;96552.22;10564832;28;2527;-73
2021/10/26 21:29:50;;;;;;;;;;;8.00;99.90;;;6.73;100.00;96556.63;10567090;28;2398;-74
2021/10/26 21:35:00;;;;;;;;;;;8.00;99.90;;;6.69;100.00;96543.97;10561797;28;2293;-74
2021/10/26 21:40:03;;;;;;;;;;;7.90;99.90;;;6.64;100.00;96557.22;10575371;27;1941;-73
2021/10/26 21:45:06;;;;;;;;;;;7.90;99.90;;;6.60;100.00;96553.34;10572495;27;1986;-73
2021/10/26 21:50:09;;;;;;;;;;;7.80;99.90;;;6.55;100.00;96553.22;10568238;28;1938;-74
2021/10/26 21:55:12;;;;;;;;;;;7.80;99.90;;;6.50;100.00;96554.75;10575577;27;2291;-74
2021/10/26 22:00:16;;;;;;;;;;;7.70;99.90;;;6.45;100.00;96557.28;10568907;28;2219;-74
2021/10/26 22:05:19;;;;;;;;;;;7.70;99.90;;;6.41;100.00;96556.09;10576220;28;1926;-73
2021/10/26 22:10:22;;;;;;;;;;;7.70;99.90;;;6.37;100.00;96560.28;10574479;28;1866;-74
2021/10/26 22:15:25;;;;;;;;;;;7.70;99.90;;;6.35;100.00;96556.19;10569926;28;2251;-74
2021/10/26 22:20:28;;;;;;;;;;;7.60;99.90;;;6.29;100.00;96552.56;10570824;27;1941;-74
2021/10/26 22:25:31;;;;;;;;;;;7.50;99.90;;;6.22;100.00;96547.31;10576694;27;1914;-74
2021/10/26 22:30:34;;;;;;;;;;;7.50;99.90;;;6.20;100.00;96553.94;10586279;28;1918;-73
2021/10/26 22:35:38;;;;;;;;;;;7.40;99.90;;;6.16;100.00;96542.91;10606769;27;1887;-73
2021/10/26 22:40:41;;;;;;;;;;;7.40;99.90;;;6.17;100.00;96543.72;10606202;28;1941;-75
2021/10/26 22:45:44;;;;;;;;;;;7.40;99.90;;;6.21;100.00;96544.88;10599916;27;2157;-75
2021/10/26 22:50:48;;;;;;;;;;;7.40;99.90;;;6.14;100.00;96549.50;10575742;28;2126;-75
2021/10/26 22:55:51;;;;;;;;;;;7.40;99.90;;;6.16;100.00;96545.56;10571123;28;2356;-73
2021/10/26 23:00:54;;;;;;;;;;;7.40;99.90;;;6.13;100.00;96547.88;10581599;27;2004;-74
2021/10/26 23:05:57;;;;;;;;;;;7.40;99.90;;;6.11;100.00;96544.63;10576751;28;1918;-74
2021/10/26 23:11:00;;;;;;;;;;;7.30;99.90;;;6.06;100.00;96541.84;10610469;27;1930;-74
2021/10/26 23:16:03;;;;;;;;;;;7.30;99.90;;;6.01;100.00;96539.81;10608085;28;1890;-74
2021/10/26 23:21:06;;;;;;;;;;;7.30;99.90;;;5.93;100.00;96527.63;10590972;28;1881;-72
2021/10/26 23:26:08;;;;;;;;;;;7.20;99.90;;;5.93;100.00;96535.63;10572452;27;1947;-73
2021/10/26 23:31:11;;;;;;;;;;;7.20;99.90;;;5.85;100.00;96537.75;10575657;28;1421;-74
2021/10/26 23:36:14;;;;;;;;;;;7.10;99.90;;;5.85;100.00;96535.91;10567603;28;1865;-74
2021/10/26 23:41:17;;;;;;;;;;;7.10;99.90;;;5.81;100.00;96533.91;10571433;28;1894;-74
2021/10/26 23:46:20;;;;;;;;;;;7.10;99.90;;;5.72;100.00;96530.72;10563519;28;1963;-75